sensor_id;sensor_type;location;lat;lon;timestamp;pressure;altitude;pressure_sealevel;temperature;humidity
75646;BME280;64237;52.438;13.240;2023-10-09T00:02:08;101839.66;;;10.10;100.00
75646;BME280;64237;52.438;13.240;2023-10-09T00:04:35;101829.03;;;10.07;100.00
75646;BME280;64237;52.438;13.240;2023-10-09T00:07:04;101822.03;;;10.11;100.00
75646;BME280;64237;52.438;13.240;2023-10-09T00:09:36;101823.28;;;10.08;100.00
75646;BME280;64237;52.438;13.240;2023-10-09T00:12:17;101826.47;;;10.05;100.00
75646;BME280;64237;52.438;13.240;2023-10-09T00:14:50;101818.41;;;10.10;100.00
75646;BME280;64237;52.438;13.240;2023-10-09T00:17:20;101816.91;;;10.01;100.00
75646;BME280;64237;52.438;13.240;2023-10-09T00:19:49;101811.59;;;9.93;100.00
75646;BME280;64237;52.438;13.240;2023-10-09T00:22:16;101812.25;;;9.95;100.00
75646;BME280;64237;52.438;13.240;2023-10-09T00:24:55;101801.81;;;9.90;100.00
75646;BME280;64237;52.438;13.240;2023-10-09T00:27:42;101802.69;;;9.91;100.00
75646;BME280;64237;52.438;13.240;2023-10-09T00:30:12;101779.72;;;9.90;100.00
75646;BME280;64237;52.438;13.240;2023-10-09T00:32:49;101775.47;;;9.88;100.00
75646;BME280;64237;52.438;13.240;2023-10-09T00:35:18;101778.00;;;9.96;100.00
75646;BME280;64237;52.438;13.240;2023-10-09T00:38:05;101761.19;;;9.97;100.00
75646;BME280;64237;52.438;13.240;2023-10-09T00:40:50;101766.50;;;10.12;100.00
75646;BME280;64237;52.438;13.240;2023-10-09T00:43:43;101759.69;;;10.02;100.00
75646;BME280;64237;52.438;13.240;2023-10-09T00:46:12;101757.56;;;10.10;100.00
75646;BME280;64237;52.438;13.240;2023-10-09T00:48:56;101746.94;;;10.07;100.00
75646;BME280;64237;52.438;13.240;2023-10-09T00:51:23;101747.78;;;10.08;100.00
75646;BME280;64237;52.438;13.240;2023-10-09T00:53:51;101736.31;;;10.04;100.00
75646;BME280;64237;52.438;13.240;2023-10-09T00:56:19;101736.31;;;10.04;100.00
75646;BME280;64237;52.438;13.240;2023-10-09T00:58:47;101731.00;;;9.96;100.00
75646;BME280;64237;52.438;13.240;2023-10-09T01:01:14;101724.84;;;9.94;100.00
75646;BME280;64237;52.438;13.240;2023-10-09T01:03:45;101731.66;;;9.91;100.00
75646;BME280;64237;52.438;13.240;2023-10-09T01:06:11;101730.81;;;9.84;100.00
75646;BME280;64237;52.438;13.240;2023-10-09T01:08:39;101718.47;;;9.87;100.00
75646;BME280;64237;52.438;13.240;2023-10-09T01:11:05;101720.38;;;9.80;100.00
75646;BME280;64237;52.438;13.240;2023-10-09T01:13:43;101714.88;;;9.86;100.00
75646;BME280;64237;52.438;13.240;2023-10-09T01:16:24;101699.34;;;9.85;100.00
75646;BME280;64237;52.438;13.240;2023-10-09T01:18:52;101685.31;;;9.93;100.00
75646;BME280;64237;52.438;13.240;2023-10-09T01:21:19;101695.53;;;9.93;100.00
75646;BME280;64237;52.438;13.240;2023-10-09T01:23:54;101688.72;;;9.89;100.00
75646;BME280;64237;52.438;13.240;2023-10-09T01:26:43;101670.44;;;9.88;100.00
75646;BME280;64237;52.438;13.240;2023-10-09T01:29:24;101658.09;;;9.84;100.00
75646;BME280;64237;52.438;13.240;2023-10-09T01:31:54;101650.66;;;9.84;100.00
75646;BME280;64237;52.438;13.240;2023-10-09T01:34:33;101656.03;;;9.73;100.00
75646;BME280;64237;52.438;13.240;2023-10-09T01:37:28;101644.13;;;9.72;100.00
75646;BME280;64237;52.438;13.240;2023-10-09T01:39:56;101625.16;;;9.76;100.00
75646;BME280;64237;52.438;13.240;2023-10-09T01:42:40;101627.06;;;9.75;100.00
75646;BME280;64237;52.438;13.240;2023-10-09T01:45:13;101608.34;;;9.84;100.00
75646;BME280;64237;52.438;13.240;2023-10-09T01:47:47;101594.75;;;9.76;100.00
75646;BME280;64237;52.438;13.240;2023-10-09T01:50:28;101595.41;;;9.78;100.00
75646;BME280;64237;52.438;13.240;2023-10-09T01:52:56;101594.75;;;9.76;100.00
75646;BME280;64237;52.438;13.240;2023-10-09T01:55:24;101596.03;;;9.80;100.00
75646;BME280;64237;52.438;13.240;2023-10-09T01:57:56;101597.94;;;9.86;100.00
75646;BME280;64237;52.438;13.240;2023-10-09T02:00:31;101598.59;;;9.75;100.00
75646;BME280;64237;52.438;13.240;2023-10-09T02:03:01;101596.03;;;9.80;100.00
75646;BME280;64237;52.438;13.240;2023-10-09T02:05:30;101588.81;;;9.79;100.00
75646;BME280;64237;52.438;13.240;2023-10-09T02:07:58;101570.75;;;9.76;100.00
75646;BME280;64237;52.438;13.240;2023-10-09T02:10:30;101564.38;;;9.76;100.00
75646;BME280;64237;52.438;13.240;2023-10-09T02:13:02;101571.44;;;9.72;100.00
75646;BME280;64237;52.438;13.240;2023-10-09T02:15:42;101577.75;;;9.79;100.00
75646;BME280;64237;52.438;13.240;2023-10-09T02:18:23;101580.09;;;9.82;100.00
75646;BME280;64237;52.438;13.240;2023-10-09T02:20:49;101581.84;;;9.70;100.00
75646;BME280;64237;52.438;13.240;2023-10-09T02:23:43;101579.47;;;9.80;100.00
75646;BME280;64237;52.438;13.240;2023-10-09T02:26:18;101571.84;;;9.69;100.00
75646;BME280;64237;52.438;13.240;2023-10-09T02:28:54;101578.00;;;9.71;100.00
75646;BME280;64237;52.438;13.240;2023-10-09T02:31:34;101578.88;;;9.65;100.00
75646;BME280;64237;52.438;13.240;2023-10-09T02:34:17;101579.72;;;9.72;100.00
75646;BME280;64237;52.438;13.240;2023-10-09T02:36:45;101573.78;;;9.61;100.00
75646;BME280;64237;52.438;13.240;2023-10-09T02:39:28;101572.66;;;9.76;100.00
75646;BME280;64237;52.438;13.240;2023-10-09T02:42:01;101576.28;;;9.76;100.00
75646;BME280;64237;52.438;13.240;2023-10-09T02:44:29;101578.59;;;9.86;100.00
75646;BME280;64237;52.438;13.240;2023-10-09T02:46:57;101564.56;;;9.81;100.00
75646;BME280;64237;52.438;13.240;2023-10-09T02:49:24;101548.00;;;9.81;100.00
75646;BME280;64237;52.438;13.240;2023-10-09T02:51:51;101540.78;;;9.80;100.00
75646;BME280;64237;52.438;13.240;2023-10-09T02:54:22;101527.59;;;9.75;100.00
75646;BME280;64237;52.438;13.240;2023-10-09T02:56:52;101517.59;;;9.81;100.00
75646;BME280;64237;52.438;13.240;2023-10-09T02:59:32;101494.84;;;9.79;100.00
75646;BME280;64237;52.438;13.240;2023-10-09T03:01:58;101498.69;;;9.78;100.00
75646;BME280;64237;52.438;13.240;2023-10-09T03:04:25;101497.44;;;9.74;100.00
75646;BME280;64237;52.438;13.240;2023-10-09T03:06:59;101490.63;;;9.76;100.00
75646;BME280;64237;52.438;13.240;2023-10-09T03:09:25;101482.94;;;9.85;100.00
75646;BME280;64237;52.438;13.240;2023-10-09T03:11:58;101482.53;;;9.75;100.00
75646;BME280;64237;52.438;13.240;2023-10-09T03:14:40;101480.16;;;9.85;100.00
75646;BME280;64237;52.438;13.240;2023-10-09T03:17:12;101480.81;;;9.87;100.00
75646;BME280;64237;52.438;13.240;2023-10-09T03:19:43;101474.00;;;9.83;100.00
75646;BME280;64237;52.438;13.240;2023-10-09T03:22:09;101458.69;;;9.87;100.00
75646;BME280;64237;52.438;13.240;2023-10-09T03:24:35;101459.75;;;9.86;100.00
75646;BME280;64237;52.438;13.240;2023-10-09T03:27:11;101459.97;;;9.84;100.00
75646;BME280;64237;52.438;13.240;2023-10-09T03:29:36;101445.50;;;9.89;100.00
75646;BME280;64237;52.438;13.240;2023-10-09T03:32:08;101445.09;;;9.85;100.00
75646;BME280;64237;52.438;13.240;2023-10-09T03:34:37;101443.19;;;9.79;100.00
75646;BME280;64237;52.438;13.240;2023-10-09T03:37:15;101433.41;;;9.83;100.00
75646;BME280;64237;52.438;13.240;2023-10-09T03:39:53;101422.94;;;9.92;100.00
75646;BME280;64237;52.438;13.240;2023-10-09T03:42:20;101421.88;;;9.93;100.00
75646;BME280;64237;52.438;13.240;2023-10-09T03:44:46;101413.97;;;9.96;100.00
75646;BME280;64237;52.438;13.240;2023-10-09T03:47:17;101419.97;;;9.93;100.00
75646;BME280;64237;52.438;13.240;2023-10-09T03:50:05;101401.72;;;9.86;100.00
75646;BME280;64237;52.438;13.240;2023-10-09T03:52:49;101377.06;;;9.84;100.00
75646;BME280;64237;52.438;13.240;2023-10-09T03:55:15;101384.28;;;9.85;100.00
75646;BME280;64237;52.438;13.240;2023-10-09T03:57:40;101377.47;;;9.88;100.00
75646;BME280;64237;52.438;13.240;2023-10-09T04:00:16;101374.94;;;9.86;100.00
75646;BME280;64237;52.438;13.240;2023-10-09T04:02:42;101357.50;;;9.86;100.00
75646;BME280;64237;52.438;13.240;2023-10-09T04:05:17;101370.25;;;9.87;100.00
75646;BME280;64237;52.438;13.240;2023-10-09T04:07:49;101374.97;;;9.80;100.00
75646;BME280;64237;52.438;13.240;2023-10-09T04:10:14;101384.75;;;9.76;100.00
75646;BME280;64237;52.438;13.240;2023-10-09T04:13:02;101402.59;;;9.80;100.00
75646;BME280;64237;52.438;13.240;2023-10-09T04:15:30;101402.59;;;9.80;100.00
75646;BME280;64237;52.438;13.240;2023-10-09T04:18:12;101389.44;;;9.75;100.00
75646;BME280;64237;52.438;13.240;2023-10-09T04:20:41;101389.22;;;9.77;100.00
75646;BME280;64237;52.438;13.240;2023-10-09T04:23:15;101386.47;;;9.77;100.00
75646;BME280;64237;52.438;13.240;2023-10-09T04:25:44;101376.66;;;9.81;100.00
75646;BME280;64237;52.438;13.240;2023-10-09T04:28:15;101376.94;;;9.73;100.00
75646;BME280;64237;52.438;13.240;2023-10-09T04:30:49;101407.78;;;9.70;100.00
75646;BME280;64237;52.438;13.240;2023-10-09T04:33:24;101433.28;;;9.72;100.00
75646;BME280;64237;52.438;13.240;2023-10-09T04:36:08;101407.06;;;9.81;100.00
75646;BME280;64237;52.438;13.240;2023-10-09T04:39:06;101397.72;;;9.75;100.00
75646;BME280;64237;52.438;13.240;2023-10-09T04:41:47;101397.72;;;9.75;100.00
75646;BME280;64237;52.438;13.240;2023-10-09T04:44:16;101403.72;;;9.72;100.00
75646;BME280;64237;52.438;13.240;2023-10-09T04:46:48;101409.47;;;9.71;100.00
75646;BME280;64237;52.438;13.240;2023-10-09T04:49:57;101395.81;;;9.76;100.00
75646;BME280;64237;52.438;13.240;2023-10-09T04:52:31;101372.44;;;9.78;100.00
75646;BME280;64237;52.438;13.240;2023-10-09T04:55:00;101370.94;;;9.76;100.00
75646;BME280;64237;52.438;13.240;2023-10-09T04:58:10;101374.13;;;9.79;100.00
75646;BME280;64237;52.438;13.240;2023-10-09T05:00:41;101358.38;;;9.80;100.00
75646;BME280;64237;52.438;13.240;2023-10-09T05:03:06;101364.75;;;9.80;100.00
75646;BME280;64237;52.438;13.240;2023-10-09T05:05:36;101359.69;;;9.77;100.00
75646;BME280;64237;52.438;13.240;2023-10-09T05:08:19;101359.63;;;9.84;100.00
75646;BME280;64237;52.438;13.240;2023-10-09T05:10:58;101358.38;;;9.80;100.00
75646;BME280;64237;52.438;13.240;2023-10-09T05:13:39;101353.66;;;9.87;100.00
75646;BME280;64237;52.438;13.240;2023-10-09T05:18:56;101362.47;;;10.02;100.00
75646;BME280;64237;52.438;13.240;2023-10-09T05:21:43;101357.69;;;9.91;100.00
75646;BME280;64237;52.438;13.240;2023-10-09T05:24:09;101356.75;;;9.97;100.00
75646;BME280;64237;52.438;13.240;2023-10-09T05:26:42;101361.22;;;9.98;100.00
75646;BME280;64237;52.438;13.240;2023-10-09T05:29:20;101365.53;;;9.94;100.00
75646;BME280;64237;52.438;13.240;2023-10-09T05:32:02;101363.03;;;9.86;100.00
75646;BME280;64237;52.438;13.240;2023-10-09T05:34:48;101358.75;;;9.90;100.00
75646;BME280;64237;52.438;13.240;2023-10-09T05:37:33;101354.47;;;9.94;100.00
75646;BME280;64237;52.438;13.240;2023-10-09T05:40:05;101356.25;;;9.82;100.00
75646;BME280;64237;52.438;13.240;2023-10-09T05:42:49;101368.75;;;9.91;100.00
75646;BME280;64237;52.438;13.240;2023-10-09T05:45:25;101347.97;;;9.82;100.00
75646;BME280;64237;52.438;13.240;2023-10-09T05:48:10;101362.50;;;9.71;100.00
75646;BME280;64237;52.438;13.240;2023-10-09T05:50:39;101360.53;;;9.78;100.00
75646;BME280;64237;52.438;13.240;2023-10-09T05:53:24;101365.16;;;9.84;100.00
75646;BME280;64237;52.438;13.240;2023-10-09T05:56:08;101360.31;;;9.79;100.00
75646;BME280;64237;52.438;13.240;2023-10-09T05:58:55;101373.28;;;9.79;100.00
75646;BME280;64237;52.438;13.240;2023-10-09T06:01:29;101367.59;;;9.74;100.00
75646;BME280;64237;52.438;13.240;2023-10-09T06:04:13;101363.13;;;9.73;100.00
75646;BME280;64237;52.438;13.240;2023-10-09T06:06:48;101365.63;;;9.81;100.00
75646;BME280;64237;52.438;13.240;2023-10-09T06:09:28;101370.25;;;9.87;100.00
75646;BME280;64237;52.438;13.240;2023-10-09T06:12:17;101366.59;;;9.93;100.00
75646;BME280;64237;52.438;13.240;2023-10-09T06:15:04;101368.59;;;9.79;100.00
75646;BME280;64237;52.438;13.240;2023-10-09T06:17:55;101361.78;;;9.82;100.00
75646;BME280;64237;52.438;13.240;2023-10-09T06:20:40;101364.13;;;9.78;100.00
75646;BME280;64237;52.438;13.240;2023-10-09T06:23:25;101358.38;;;9.80;100.00
75646;BME280;64237;52.438;13.240;2023-10-09T06:26:10;101364.06;;;9.91;100.00
75646;BME280;64237;52.438;13.240;2023-10-09T06:28:48;101362.81;;;9.87;100.00
75646;BME280;64237;52.438;13.240;2023-10-09T06:31:33;101358.34;;;9.86;100.00
75646;BME280;64237;52.438;13.240;2023-10-09T06:34:19;101353.66;;;9.87;100.00
75646;BME280;64237;52.438;13.240;2023-10-09T06:36:46;101345.56;;;9.92;100.00
75646;BME280;64237;52.438;13.240;2023-10-09T06:39:18;101344.31;;;9.88;100.00
75646;BME280;64237;52.438;13.240;2023-10-09T06:42:02;101343.06;;;9.84;100.00
75646;BME280;64237;52.438;13.240;2023-10-09T06:45:07;101337.91;;;9.94;100.00
75646;BME280;64237;52.438;13.240;2023-10-09T06:47:43;101333.94;;;9.83;100.00
75646;BME280;64237;52.438;13.240;2023-10-09T06:50:34;101335.03;;;9.76;100.00
75646;BME280;64237;52.438;13.240;2023-10-09T06:53:27;101337.09;;;9.87;100.00
75646;BME280;64237;52.438;13.240;2023-10-09T06:56:11;101343.78;;;9.97;100.00
75646;BME280;64237;52.438;13.240;2023-10-09T06:58:51;101336.44;;;10.16;100.00
75646;BME280;64237;52.438;13.240;2023-10-09T07:01:21;101322.78;;;10.21;100.00
75646;BME280;64237;52.438;13.240;2023-10-09T07:04:08;101321.09;;;10.20;100.00
75646;BME280;64237;52.438;13.240;2023-10-09T07:06:52;101321.09;;;10.20;100.00
75646;BME280;64237;52.438;13.240;2023-10-09T07:09:20;101322.81;;;10.40;100.00
75646;BME280;64237;52.438;13.240;2023-10-09T07:11:50;101323.44;;;10.42;100.00
75646;BME280;64237;52.438;13.240;2023-10-09T07:14:22;101335.09;;;10.25;100.00
75646;BME280;64237;52.438;13.240;2023-10-09T07:17:17;101335.72;;;10.27;100.00
75646;BME280;64237;52.438;13.240;2023-10-09T07:19:57;101337.34;;;10.10;100.00
75646;BME280;64237;52.438;13.240;2023-10-09T07:22:41;101332.94;;;10.27;100.00
75646;BME280;64237;52.438;13.240;2023-10-09T07:25:33;101333.28;;;10.38;100.00
75646;BME280;64237;52.438;13.240;2023-10-09T07:28:25;101324.78;;;10.39;100.00
75646;BME280;64237;52.438;13.240;2023-10-09T07:30:55;101327.97;;;10.36;100.00
75646;BME280;64237;52.438;13.240;2023-10-09T07:33:25;101338.75;;;10.44;100.00
75646;BME280;64237;52.438;13.240;2023-10-09T07:36:01;101341.28;;;10.46;100.00
75646;BME280;64237;52.438;13.240;2023-10-09T07:38:35;101332.81;;;10.41;100.00
75646;BME280;64237;52.438;13.240;2023-10-09T07:41:01;101329.72;;;10.30;100.00
75646;BME280;64237;52.438;13.240;2023-10-09T07:43:28;101335.88;;;10.33;100.00
75646;BME280;64237;52.438;13.240;2023-10-09T07:46:08;101334.63;;;10.28;100.00
75646;BME280;64237;52.438;13.240;2023-10-09T07:48:53;101331.47;;;10.25;100.00
75646;BME280;64237;52.438;13.240;2023-10-09T07:51:25;101330.03;;;10.41;100.00
75646;BME280;64237;52.438;13.240;2023-10-09T07:53:58;101332.53;;;10.49;100.00
75646;BME280;64237;52.438;13.240;2023-10-09T07:56:43;101346.69;;;10.59;100.00
75646;BME280;64237;52.438;13.240;2023-10-09T07:59:11;101343.75;;;10.54;100.00
75646;BME280;64237;52.438;13.240;2023-10-09T08:01:41;101353.13;;;10.53;100.00
75646;BME280;64237;52.438;13.240;2023-10-09T08:04:30;101355.44;;;10.56;100.00
75646;BME280;64237;52.438;13.240;2023-10-09T08:07:24;101363.59;;;10.69;100.00
75646;BME280;64237;52.438;13.240;2023-10-09T08:10:07;101376.38;;;10.70;100.00
75646;BME280;64237;52.438;13.240;2023-10-09T08:12:39;101377.44;;;10.69;100.00
75646;BME280;64237;52.438;13.240;2023-10-09T08:15:26;101388.91;;;10.73;100.00
75646;BME280;64237;52.438;13.240;2023-10-09T08:18:09;101392.69;;;10.78;100.00
75646;BME280;64237;52.438;13.240;2023-10-09T08:20:36;101375.28;;;10.71;100.00
75646;BME280;64237;52.438;13.240;2023-10-09T08:23:22;101379.59;;;10.67;100.00
75646;BME280;64237;52.438;13.240;2023-10-09T08:26:17;101379.41;;;10.62;100.00
75646;BME280;64237;52.438;13.240;2023-10-09T08:28:54;101381.91;;;10.70;100.00
75646;BME280;64237;52.438;13.240;2023-10-09T08:31:43;101381.44;;;10.73;100.00
75646;BME280;64237;52.438;13.240;2023-10-09T08:34:20;101386.19;;;10.66;100.00
75646;BME280;64237;52.438;13.240;2023-10-09T08:37:16;101388.19;;;10.59;100.00
75646;BME280;64237;52.438;13.240;2023-10-09T08:39:48;101380.88;;;10.64;100.00
75646;BME280;64237;52.438;13.240;2023-10-09T08:42:14;101371.72;;;10.64;100.00
75646;BME280;64237;52.438;13.240;2023-10-09T08:44:41;101367.91;;;10.65;100.00
75646;BME280;64237;52.438;13.240;2023-10-09T08:47:15;101366.38;;;10.69;100.00
75646;BME280;64237;52.438;13.240;2023-10-09T08:49:40;101364.22;;;10.71;100.00
75646;BME280;64237;52.438;13.240;2023-10-09T08:52:16;101356.69;;;10.78;100.00
75646;BME280;64237;52.438;13.240;2023-10-09T08:54:49;101358.84;;;10.76;100.00
75646;BME280;64237;52.438;13.240;2023-10-09T08:57:20;101356.81;;;10.65;100.00
75646;BME280;64237;52.438;13.240;2023-10-09T08:59:56;101355.59;;;10.61;100.00
75646;BME280;64237;52.438;13.240;2023-10-09T09:02:22;101358.06;;;10.69;100.00
75646;BME280;64237;52.438;13.240;2023-10-09T09:04:51;101360.03;;;10.62;100.00
75646;BME280;64237;52.438;13.240;2023-10-09T09:07:27;101358.03;;;10.51;100.00
75646;BME280;64237;52.438;13.240;2023-10-09T09:10:04;101354.78;;;10.60;100.00
75646;BME280;64237;52.438;13.240;2023-10-09T09:12:43;101360.66;;;10.64;100.00
75646;BME280;64237;52.438;13.240;2023-10-09T09:15:16;101359.31;;;10.73;100.00
75646;BME280;64237;52.438;13.240;2023-10-09T09:17:48;101346.88;;;10.82;100.00
75646;BME280;64237;52.438;13.240;2023-10-09T09:20:26;101339.25;;;10.78;100.00
75646;BME280;64237;52.438;13.240;2023-10-09T09:23:09;101348.25;;;10.73;100.00
75646;BME280;64237;52.438;13.240;2023-10-09T09:25:49;101355.06;;;10.71;100.00
75646;BME280;64237;52.438;13.240;2023-10-09T09:28:27;101358.84;;;10.76;100.00
75646;BME280;64237;52.438;13.240;2023-10-09T09:31:08;101358.06;;;10.69;100.00
75646;BME280;64237;52.438;13.240;2023-10-09T09:33:42;101357.78;;;10.77;100.00
75646;BME280;64237;52.438;13.240;2023-10-09T09:36:09;101352.63;;;10.81;100.00
75646;BME280;64237;52.438;13.240;2023-10-09T09:38:37;101367.78;;;10.78;100.00
75646;BME280;64237;52.438;13.240;2023-10-09T09:41:16;101362.75;;;10.87;100.00
75646;BME280;64237;52.438;13.240;2023-10-09T09:44:00;101357.38;;;10.92;100.00
75646;BME280;64237;52.438;13.240;2023-10-09T09:49:13;101355.25;;;10.94;100.00
75646;BME280;64237;52.438;13.240;2023-10-09T09:51:52;101363.78;;;10.92;100.00
75646;BME280;64237;52.438;13.240;2023-10-09T09:54:18;101368.28;;;10.87;100.00
75646;BME280;64237;52.438;13.240;2023-10-09T09:56:48;101363.25;;;11.02;100.00
75646;BME280;64237;52.438;13.240;2023-10-09T09:59:17;101364.09;;;11.03;100.00
75646;BME280;64237;52.438;13.240;2023-10-09T10:01:50;101360.84;;;10.87;100.00
75646;BME280;64237;52.438;13.240;2023-10-09T10:04:40;101360.38;;;10.90;100.00
75646;BME280;64237;52.438;13.240;2023-10-09T10:07:08;101365.63;;;10.98;100.00
75646;BME280;64237;52.438;13.240;2023-10-09T10:09:42;101365.16;;;11.02;100.00
75646;BME280;64237;52.438;13.240;2023-10-09T10:12:11;101349.25;;;10.97;100.00
75646;BME280;64237;52.438;13.240;2023-10-09T10:14:56;101344.56;;;10.97;100.00
75646;BME280;64237;52.438;13.240;2023-10-09T10:20:28;101351.31;;;11.02;100.00
75646;BME280;64237;52.438;13.240;2023-10-09T10:25:44;101352.69;;;11.11;100.00
75646;BME280;64237;52.438;13.240;2023-10-09T10:28:23;101347.00;;;11.06;100.00
75646;BME280;64237;52.438;13.240;2023-10-09T10:31:08;101358.06;;;11.06;100.00
75646;BME280;64237;52.438;13.240;2023-10-09T10:36:26;101358.56;;;11.03;100.00
75646;BME280;64237;52.438;13.240;2023-10-09T10:39:06;101354.06;;;11.20;100.00
75646;BME280;64237;52.438;13.240;2023-10-09T10:42:09;101346.78;;;11.25;100.00
75646;BME280;64237;52.438;13.240;2023-10-09T10:44:55;101349.88;;;11.29;100.00
75646;BME280;64237;52.438;13.240;2023-10-09T10:47:26;101354.03;;;11.38;100.00
75646;BME280;64237;52.438;13.240;2023-10-09T10:49:58;101348.38;;;11.15;100.00
75646;BME280;64237;52.438;13.240;2023-10-09T10:52:24;101341.97;;;11.32;100.00
75646;BME280;64237;52.438;13.240;2023-10-09T10:55:10;101353.63;;;11.23;100.00
75646;BME280;64237;52.438;13.240;2023-10-09T10:57:57;101349.88;;;11.29;100.00
75646;BME280;64237;52.438;13.240;2023-10-09T11:00:41;101336.03;;;11.29;100.00
75646;BME280;64237;52.438;13.240;2023-10-09T11:03:23;101332.19;;;11.30;100.00
75646;BME280;64237;52.438;13.240;2023-10-09T11:06:02;101337.09;;;11.46;100.00
75646;BME280;64237;52.438;13.240;2023-10-09T11:08:49;101341.13;;;11.32;100.00
75646;BME280;64237;52.438;13.240;2023-10-09T11:11:25;101340.66;;;11.35;100.00
75646;BME280;64237;52.438;13.240;2023-10-09T11:14:10;101330.50;;;11.29;100.00
75646;BME280;64237;52.438;13.240;2023-10-09T11:16:53;101320.94;;;11.43;100.00
75646;BME280;64237;52.438;13.240;2023-10-09T11:19:29;101334.19;;;11.41;100.00
75646;BME280;64237;52.438;13.240;2023-10-09T11:21:59;101328.28;;;11.49;100.00
75646;BME280;64237;52.438;13.240;2023-10-09T11:24:30;101328.28;;;11.49;100.00
75646;BME280;64237;52.438;13.240;2023-10-09T11:27:08;101305.66;;;11.52;100.00
75646;BME280;64237;52.438;13.240;2023-10-09T11:29:49;101298.94;;;11.60;100.00
75646;BME280;64237;52.438;13.240;2023-10-09T11:32:21;101290.41;;;11.61;100.00
75646;BME280;64237;52.438;13.240;2023-10-09T11:35:09;101297.03;;;11.60;100.00
75646;BME280;64237;52.438;13.240;2023-10-09T11:37:38;101304.88;;;11.63;100.00
75646;BME280;64237;52.438;13.240;2023-10-09T11:40:33;101300.66;;;11.61;100.00
75646;BME280;64237;52.438;13.240;2023-10-09T11:43:20;101315.06;;;11.93;100.00
75646;BME280;64237;52.438;13.240;2023-10-09T11:46:11;101298.44;;;11.93;100.00
75646;BME280;64237;52.438;13.240;2023-10-09T11:48:36;101296.06;;;12.08;100.00
75646;BME280;64237;52.438;13.240;2023-10-09T11:51:25;101290.19;;;11.75;100.00
75646;BME280;64237;52.438;13.240;2023-10-09T11:53:53;101292.19;;;11.86;100.00
75646;BME280;64237;52.438;13.240;2023-10-09T11:56:44;101291.03;;;11.75;100.00
75646;BME280;64237;52.438;13.240;2023-10-09T11:59:12;101291.44;;;11.79;100.00
75646;BME280;64237;52.438;13.240;2023-10-09T12:01:53;101285.28;;;11.77;100.00
75646;BME280;64237;52.438;13.240;2023-10-09T12:04:23;101273.69;;;11.68;100.00
75646;BME280;64237;52.438;13.240;2023-10-09T12:06:55;101282.94;;;11.62;100.00
75646;BME280;64237;52.438;13.240;2023-10-09T12:09:32;101282.69;;;11.63;100.00
75646;BME280;64237;52.438;13.240;2023-10-09T12:12:20;101279.09;;;11.63;100.00
75646;BME280;64237;52.438;13.240;2023-10-09T12:14:51;101280.72;;;11.52;100.00
75646;BME280;64237;52.438;13.240;2023-10-09T12:17:18;101286.09;;;11.65;100.00
75646;BME280;64237;52.438;13.240;2023-10-09T12:19:43;101297.03;;;11.60;100.00
75646;BME280;64237;52.438;13.240;2023-10-09T12:22:15;101301.91;;;11.77;100.00
75646;BME280;64237;52.438;13.240;2023-10-09T12:24:41;101290.88;;;11.58;100.00
75646;BME280;64237;52.438;13.240;2023-10-09T12:27:11;101293.59;;;11.77;100.00
75646;BME280;64237;52.438;13.240;2023-10-09T12:29:48;101294.28;;;11.72;100.00
75646;BME280;64237;52.438;13.240;2023-10-09T12:32:14;101292.66;;;11.83;100.00
75646;BME280;64237;52.438;13.240;2023-10-09T12:34:44;101287.59;;;11.80;100.00
75646;BME280;64237;52.438;13.240;2023-10-09T12:37:13;101287.88;;;11.72;100.00
75646;BME280;64237;52.438;13.240;2023-10-09T12:39:42;101290.66;;;11.72;100.00
75646;BME280;64237;52.438;13.240;2023-10-09T12:42:08;101289.28;;;11.81;100.00
75646;BME280;64237;52.438;13.240;2023-10-09T12:44:36;101294.81;;;11.81;100.00
75646;BME280;64237;52.438;13.240;2023-10-09T12:47:05;101283.50;;;11.94;100.00
75646;BME280;64237;52.438;13.240;2023-10-09T12:49:40;101276.13;;;11.76;100.00
75646;BME280;64237;52.438;13.240;2023-10-09T12:52:11;101282.09;;;11.73;100.00
75646;BME280;64237;52.438;13.240;2023-10-09T12:54:43;101278.09;;;11.57;100.00
75646;BME280;64237;52.438;13.240;2023-10-09T12:57:09;101277.84;;;11.47;100.00
75646;BME280;64237;52.438;13.240;2023-10-09T12:59:39;101268.69;;;11.58;100.00
75646;BME280;64237;52.438;13.240;2023-10-09T13:02:23;101266.44;;;11.67;100.00
75646;BME280;64237;52.438;13.240;2023-10-09T13:05:03;101272.34;;;11.71;100.00
75646;BME280;64237;52.438;13.240;2023-10-09T13:07:30;101265.47;;;11.61;100.00
75646;BME280;64237;52.438;13.240;2023-10-09T13:09:55;101274.25;;;11.58;100.00
75646;BME280;64237;52.438;13.240;2023-10-09T13:12:42;101268.97;;;11.68;100.00
75646;BME280;64237;52.438;13.240;2023-10-09T13:15:11;101276.16;;;11.58;100.00
75646;BME280;64237;52.438;13.240;2023-10-09T13:17:37;101269.63;;;11.52;100.00
75646;BME280;64237;52.438;13.240;2023-10-09T13:20:04;101285.66;;;11.50;100.00
75646;BME280;64237;52.438;13.240;2023-10-09T13:22:45;101287.22;;;11.46;100.00
75646;BME280;64237;52.438;13.240;2023-10-09T13:25:13;101290.41;;;11.61;100.00
75646;BME280;64237;52.438;13.240;2023-10-09T13:27:44;101285.78;;;11.55;100.00
75646;BME280;64237;52.438;13.240;2023-10-09T13:30:19;101281.38;;;11.66;100.00
75646;BME280;64237;52.438;13.240;2023-10-09T13:32:51;101275.09;;;11.59;100.00
75646;BME280;64237;52.438;13.240;2023-10-09T13:35:20;101281.94;;;11.56;100.00